New Scone, United Kingdom
Current Conditions -  °F | °C
As of 8:20 AM on Friday 31 Oct 2014 (Local Time) from EGPN Reporting Station
Scattered Clouds Scattered Clouds  
Wind Chill: 55°   Ceiling: Unl
Heat Index: 55°   Visibility: 6mi
Dew Point: 54°   Wind: 5mph
Humidity: 94%   Direction: 160°SSE
Pressure: 29.77"   Gusts: NA
Location:  56.42°N, 3.41°W
Report Text: EGPN 310820Z 16004KT 130V200 9999 SCT026 SCT041 13/12 Q1008
Loading
Personal Weather Stations






























Interactive Weather Map
Tropical Storm Tracking
New forecast layout! Learn more

10-Day Weather Forecast

Advertisements
Track Severe Weather on mobile